sensor_id;sensor_type;location;lat;lon;timestamp;pressure;altitude;pressure_sealevel;temperature;humidity
1472;BME280;963;42.644;23.336;2023-05-10T00:00:50;94448.53;;;9.29;100.00
1472;BME280;963;42.644;23.336;2023-05-10T00:03:15;94433.69;;;9.21;100.00
1472;BME280;963;42.644;23.336;2023-05-10T00:05:41;94444.13;;;9.33;100.00
1472;BME280;963;42.644;23.336;2023-05-10T00:08:06;94447.75;;;9.13;100.00
1472;BME280;963;42.644;23.336;2023-05-10T00:10:32;94426.94;;;9.04;100.00
1472;BME280;963;42.644;23.336;2023-05-10T00:12:57;94445.13;;;9.13;100.00
1472;BME280;963;42.644;23.336;2023-05-10T00:15:23;94425.06;;;9.05;100.00
1472;BME280;963;42.644;23.336;2023-05-10T00:17:50;94444.53;;;9.04;100.00
1472;BME280;963;42.644;23.336;2023-05-10T00:20:15;94457.50;;;8.97;100.00
1472;BME280;963;42.644;23.336;2023-05-10T00:22:41;94433.44;;;8.79;100.00
1472;BME280;963;42.644;23.336;2023-05-10T00:25:07;94429.91;;;9.03;100.00
1472;BME280;963;42.644;23.336;2023-05-10T00:27:32;94423.97;;;8.90;100.00
1472;BME280;963;42.644;23.336;2023-05-10T00:29:58;94424.84;;;8.94;100.00
1472;BME280;963;42.644;23.336;2023-05-10T00:32:23;94432.94;;;8.89;100.00
1472;BME280;963;42.644;23.336;2023-05-10T00:34:48;94442.78;;;8.92;100.00
1472;BME280;963;42.644;23.336;2023-05-10T00:37:14;94422.56;;;8.93;100.00
1472;BME280;963;42.644;23.336;2023-05-10T00:39:39;94435.13;;;8.87;100.00
1472;BME280;963;42.644;23.336;2023-05-10T00:42:05;94416.69;;;8.84;100.00
1472;BME280;963;42.644;23.336;2023-05-10T00:44:30;94414.66;;;8.77;100.00
1472;BME280;963;42.644;23.336;2023-05-10T00:46:56;94437.75;;;8.87;100.00
1472;BME280;963;42.644;23.336;2023-05-10T00:49:22;94422.63;;;8.96;100.00
1472;BME280;963;42.644;23.336;2023-05-10T00:51:48;94419.97;;;8.81;100.00
1472;BME280;963;42.644;23.336;2023-05-10T00:54:15;94407.22;;;8.79;100.00
1472;BME280;963;42.644;23.336;2023-05-10T00:56:40;94413.81;;;8.73;100.00
1472;BME280;963;42.644;23.336;2023-05-10T00:59:08;94404.41;;;8.56;100.00
1472;BME280;963;42.644;23.336;2023-05-10T01:01:34;94399.44;;;8.67;100.00
1472;BME280;963;42.644;23.336;2023-05-10T01:04:01;94408.22;;;8.74;100.00
1472;BME280;963;42.644;23.336;2023-05-10T01:06:28;94423.38;;;8.65;100.00
1472;BME280;963;42.644;23.336;2023-05-10T01:08:53;94409.31;;;8.58;100.00
1472;BME280;963;42.644;23.336;2023-05-10T01:11:19;94416.50;;;8.61;100.00
1472;BME280;963;42.644;23.336;2023-05-10T01:13:49;94383.88;;;8.58;100.00
1472;BME280;963;42.644;23.336;2023-05-10T01:16:15;94391.81;;;8.62;100.00
1472;BME280;963;42.644;23.336;2023-05-10T01:18:41;94401.38;;;8.70;100.00
1472;BME280;963;42.644;23.336;2023-05-10T01:37:15;94393.94;;;8.28;100.00
1472;BME280;963;42.644;23.336;2023-05-10T01:39:59;94390.69;;;8.19;100.00
1472;BME280;963;42.644;23.336;2023-05-10T01:42:29;94368.84;;;7.99;100.00
1472;BME280;963;42.644;23.336;2023-05-10T01:45:07;94353.44;;;7.98;100.00
1472;BME280;963;42.644;23.336;2023-05-10T01:47:46;94373.56;;;8.22;100.00
1472;BME280;963;42.644;23.336;2023-05-10T01:50:18;94366.22;;;7.99;100.00
1472;BME280;963;42.644;23.336;2023-05-10T01:52:49;94361.06;;;8.03;100.00
1472;BME280;963;42.644;23.336;2023-05-10T01:55:18;94371.13;;;8.01;100.00
1472;BME280;963;42.644;23.336;2023-05-10T01:57:46;94384.41;;;8.08;100.00
1472;BME280;963;42.644;23.336;2023-05-10T02:00:14;94380.59;;;8.05;100.00
1472;BME280;963;42.644;23.336;2023-05-10T02:02:44;94381.41;;;7.94;100.00
1472;BME280;963;42.644;23.336;2023-05-10T02:05:12;94361.41;;;8.01;100.00
1472;BME280;963;42.644;23.336;2023-05-10T02:07:37;94368.66;;;7.92;100.00
1472;BME280;963;42.644;23.336;2023-05-10T02:10:05;94380.31;;;7.95;99.40
1472;BME280;963;42.644;23.336;2023-05-10T02:12:32;94392.13;;;7.89;100.00
1472;BME280;963;42.644;23.336;2023-05-10T02:15:02;94383.06;;;7.86;99.59
1472;BME280;963;42.644;23.336;2023-05-10T02:17:30;94377.00;;;7.70;97.91
1472;BME280;963;42.644;23.336;2023-05-10T02:19:58;94369.19;;;7.58;95.68
1472;BME280;963;42.644;23.336;2023-05-10T02:22:26;94369.94;;;7.58;92.39
1472;BME280;963;42.644;23.336;2023-05-10T02:24:51;94394.06;;;7.51;90.55
1472;BME280;963;42.644;23.336;2023-05-10T02:27:19;94382.94;;;7.55;86.99
1472;BME280;963;42.644;23.336;2023-05-10T02:29:45;94381.75;;;7.40;85.51
1472;BME280;963;42.644;23.336;2023-05-10T02:32:12;94387.44;;;7.30;85.09
1472;BME280;963;42.644;23.336;2023-05-10T02:34:38;94376.00;;;7.22;83.89
1472;BME280;963;42.644;23.336;2023-05-10T02:37:04;94370.69;;;7.06;83.37
1472;BME280;963;42.644;23.336;2023-05-10T02:39:31;94392.81;;;7.09;84.72
1472;BME280;963;42.644;23.336;2023-05-10T02:41:58;94389.00;;;7.06;84.85
1472;BME280;963;42.644;23.336;2023-05-10T02:44:26;94385.94;;;7.16;85.42
1472;BME280;963;42.644;23.336;2023-05-10T02:46:53;94383.53;;;6.99;87.48
1472;BME280;963;42.644;23.336;2023-05-10T02:49:21;94378.28;;;6.99;88.12
1472;BME280;963;42.644;23.336;2023-05-10T02:51:52;94367.19;;;6.78;90.24
1472;BME280;963;42.644;23.336;2023-05-10T02:54:27;94365.88;;;6.84;91.14
1472;BME280;963;42.644;23.336;2023-05-10T02:56:57;94371.66;;;6.89;91.47
1472;BME280;963;42.644;23.336;2023-05-10T02:59:23;94375.03;;;6.78;92.11
1472;BME280;963;42.644;23.336;2023-05-10T03:01:48;94385.72;;;6.97;90.97
1472;BME280;963;42.644;23.336;2023-05-10T03:04:14;94392.03;;;7.08;91.88
1472;BME280;963;42.644;23.336;2023-05-10T03:06:41;94373.94;;;7.03;90.90
1472;BME280;963;42.644;23.336;2023-05-10T03:09:07;94359.56;;;6.97;90.59
1472;BME280;963;42.644;23.336;2023-05-10T03:14:13;94403.56;;;6.83;92.83
1472;BME280;963;42.644;23.336;2023-05-10T03:16:47;94372.63;;;6.97;91.50
1472;BME280;963;42.644;23.336;2023-05-10T03:22:09;94382.44;;;7.00;91.41
1472;BME280;963;42.644;23.336;2023-05-10T03:24:36;94410.88;;;6.89;92.22
1472;BME280;963;42.644;23.336;2023-05-10T03:27:04;94386.38;;;7.06;92.16
1472;BME280;963;42.644;23.336;2023-05-10T03:29:31;94393.31;;;7.02;92.22
1472;BME280;963;42.644;23.336;2023-05-10T03:31:58;94404.78;;;7.10;91.73
1472;BME280;963;42.644;23.336;2023-05-10T03:34:25;94396.84;;;7.06;92.26
1472;BME280;963;42.644;23.336;2023-05-10T03:36:50;94394.66;;;7.08;90.54
1472;BME280;963;42.644;23.336;2023-05-10T03:39:16;94416.13;;;7.14;91.07
1472;BME280;963;42.644;23.336;2023-05-10T03:41:41;94407.06;;;7.11;91.18
1472;BME280;963;42.644;23.336;2023-05-10T03:44:07;94418.06;;;7.05;91.19
1472;BME280;963;42.644;23.336;2023-05-10T03:46:32;94398.91;;;7.13;90.71
1472;BME280;963;42.644;23.336;2023-05-10T03:48:58;94405.22;;;7.12;89.78
1472;BME280;963;42.644;23.336;2023-05-10T03:51:23;94404.03;;;7.09;89.11
1472;BME280;963;42.644;23.336;2023-05-10T03:53:53;94401.19;;;6.90;88.95
1472;BME280;963;42.644;23.336;2023-05-10T03:56:18;94413.59;;;7.05;87.13
1472;BME280;963;42.644;23.336;2023-05-10T03:58:44;94400.31;;;7.10;85.98
1472;BME280;963;42.644;23.336;2023-05-10T04:01:09;94399.88;;;6.96;85.84
1472;BME280;963;42.644;23.336;2023-05-10T04:03:35;94410.00;;;6.98;86.66
1472;BME280;963;42.644;23.336;2023-05-10T04:06:01;94432.47;;;7.11;86.26
1472;BME280;963;42.644;23.336;2023-05-10T04:08:27;94414.34;;;7.06;86.97
1472;BME280;963;42.644;23.336;2023-05-10T04:10:53;94418.94;;;6.97;87.39
1472;BME280;963;42.644;23.336;2023-05-10T04:13:18;94424.06;;;7.05;86.65
1472;BME280;963;42.644;23.336;2023-05-10T04:15:44;94430.59;;;6.99;86.85
1472;BME280;963;42.644;23.336;2023-05-10T04:18:09;94419.47;;;6.90;87.85
1472;BME280;963;42.644;23.336;2023-05-10T04:20:35;94422.75;;;6.99;87.81
1472;BME280;963;42.644;23.336;2023-05-10T04:23:00;94431.13;;;7.05;87.51
1472;BME280;963;42.644;23.336;2023-05-10T04:25:25;94424.59;;;6.99;88.31
1472;BME280;963;42.644;23.336;2023-05-10T04:27:51;94419.72;;;7.09;87.88
1472;BME280;963;42.644;23.336;2023-05-10T04:30:17;94403.34;;;7.00;87.98
1472;BME280;963;42.644;23.336;2023-05-10T04:32:42;94410.75;;;6.98;88.22
1472;BME280;963;42.644;23.336;2023-05-10T04:35:08;94422.44;;;7.13;87.78
1472;BME280;963;42.644;23.336;2023-05-10T04:37:35;94440.50;;;7.06;87.69
1472;BME280;963;42.644;23.336;2023-05-10T04:40:01;94437.13;;;7.05;88.75
1472;BME280;963;42.644;23.336;2023-05-10T04:42:28;94440.44;;;7.14;88.37
1472;BME280;963;42.644;23.336;2023-05-10T04:44:54;94424.94;;;7.09;87.37
1472;BME280;963;42.644;23.336;2023-05-10T04:47:19;94421.78;;;7.16;86.63
1472;BME280;963;42.644;23.336;2023-05-10T04:49:45;94444.97;;;7.05;87.10
1472;BME280;963;42.644;23.336;2023-05-10T04:52:10;94422.22;;;7.18;86.63
1472;BME280;963;42.644;23.336;2023-05-10T04:54:36;94426.91;;;7.25;86.97
1472;BME280;963;42.644;23.336;2023-05-10T04:57:02;94423.97;;;7.26;86.84
1472;BME280;963;42.644;23.336;2023-05-10T04:59:27;94429.97;;;7.27;85.49
1472;BME280;963;42.644;23.336;2023-05-10T05:01:52;94417.09;;;7.21;87.35
1472;BME280;963;42.644;23.336;2023-05-10T05:04:18;94450.22;;;7.30;86.53
1472;BME280;963;42.644;23.336;2023-05-10T05:06:43;94437.56;;;7.32;87.40
1472;BME280;963;42.644;23.336;2023-05-10T05:09:09;94422.19;;;7.42;87.74
1472;BME280;963;42.644;23.336;2023-05-10T05:11:35;94422.97;;;7.43;88.20
1472;BME280;963;42.644;23.336;2023-05-10T05:14:00;94434.53;;;7.54;87.37
1472;BME280;963;42.644;23.336;2023-05-10T05:16:26;94414.44;;;7.58;87.26
1472;BME280;963;42.644;23.336;2023-05-10T05:18:51;94451.09;;;7.58;86.55
1472;BME280;963;42.644;23.336;2023-05-10T05:21:18;94436.31;;;7.78;85.66
1472;BME280;963;42.644;23.336;2023-05-10T05:23:44;94420.53;;;7.62;85.77
1472;BME280;963;42.644;23.336;2023-05-10T05:26:09;94430.22;;;7.86;85.98
1472;BME280;963;42.644;23.336;2023-05-10T05:28:36;94433.34;;;7.92;85.81
1472;BME280;963;42.644;23.336;2023-05-10T05:31:06;94449.97;;;7.71;84.81
1472;BME280;963;42.644;23.336;2023-05-10T05:33:32;94435.03;;;7.72;86.03
1472;BME280;963;42.644;23.336;2023-05-10T05:36:00;94456.41;;;7.74;86.43
1472;BME280;963;42.644;23.336;2023-05-10T05:38:26;94434.94;;;7.68;87.20
1472;BME280;963;42.644;23.336;2023-05-10T05:40:51;94437.66;;;7.72;86.86
1472;BME280;963;42.644;23.336;2023-05-10T05:43:16;94448.78;;;7.81;86.05
1472;BME280;963;42.644;23.336;2023-05-10T05:45:42;94459.94;;;7.53;87.71
1472;BME280;963;42.644;23.336;2023-05-10T05:48:07;94457.75;;;7.43;88.63
1472;BME280;963;42.644;23.336;2023-05-10T05:50:32;94463.75;;;7.56;87.83
1472;BME280;963;42.644;23.336;2023-05-10T05:52:58;94460.03;;;7.57;88.78
1472;BME280;963;42.644;23.336;2023-05-10T05:55:23;94461.09;;;7.68;89.37
1472;BME280;963;42.644;23.336;2023-05-10T05:57:49;94460.03;;;7.57;90.28
1472;BME280;963;42.644;23.336;2023-05-10T06:00:15;94475.50;;;7.62;88.91
1472;BME280;963;42.644;23.336;2023-05-10T06:02:40;94454.78;;;7.69;88.54
1472;BME280;963;42.644;23.336;2023-05-10T06:05:06;94469.63;;;7.53;88.31
1472;BME280;963;42.644;23.336;2023-05-10T06:07:32;94494.81;;;7.33;90.44
1472;BME280;963;42.644;23.336;2023-05-10T06:09:57;94477.06;;;7.51;90.97
1472;BME280;963;42.644;23.336;2023-05-10T06:12:23;94454.34;;;7.67;90.95
1472;BME280;963;42.644;23.336;2023-05-10T06:14:48;94462.31;;;7.59;90.63
1472;BME280;963;42.644;23.336;2023-05-10T06:17:13;94471.81;;;7.63;91.07
1472;BME280;963;42.644;23.336;2023-05-10T06:19:39;94481.72;;;7.70;91.09
1472;BME280;963;42.644;23.336;2023-05-10T06:22:04;94471.94;;;7.55;92.06
1472;BME280;963;42.644;23.336;2023-05-10T06:24:30;94470.91;;;7.71;91.76
1472;BME280;963;42.644;23.336;2023-05-10T06:26:55;94495.25;;;7.60;92.49
1472;BME280;963;42.644;23.336;2023-05-10T06:29:21;94466.22;;;7.77;90.88
1472;BME280;963;42.644;23.336;2023-05-10T06:31:46;94470.06;;;7.67;91.41
1472;BME280;963;42.644;23.336;2023-05-10T06:34:12;94471.78;;;7.75;91.70
1472;BME280;963;42.644;23.336;2023-05-10T06:36:38;94513.47;;;7.68;89.23
1472;BME280;963;42.644;23.336;2023-05-10T06:39:04;94474.16;;;7.93;89.46
1472;BME280;963;42.644;23.336;2023-05-10T06:41:30;94477.13;;;7.91;89.60
1472;BME280;963;42.644;23.336;2023-05-10T06:43:56;94489.78;;;7.65;89.78
1472;BME280;963;42.644;23.336;2023-05-10T06:46:21;94477.13;;;7.79;88.78
1472;BME280;963;42.644;23.336;2023-05-10T06:48:46;94484.66;;;7.80;88.61
1472;BME280;963;42.644;23.336;2023-05-10T06:51:12;94483.56;;;7.69;88.04
1472;BME280;963;42.644;23.336;2023-05-10T06:53:37;94474.50;;;7.79;87.40
1472;BME280;963;42.644;23.336;2023-05-10T06:56:03;94476.38;;;7.66;87.63
1472;BME280;963;42.644;23.336;2023-05-10T06:58:28;94481.94;;;7.65;87.70
1472;BME280;963;42.644;23.336;2023-05-10T07:00:53;94474.81;;;7.77;87.01
1472;BME280;963;42.644;23.336;2023-05-10T07:03:19;94483.88;;;7.80;86.63
1472;BME280;963;42.644;23.336;2023-05-10T07:05:44;94504.72;;;7.76;86.79
1472;BME280;963;42.644;23.336;2023-05-10T07:08:19;94465.69;;;7.71;87.76
1472;BME280;963;42.644;23.336;2023-05-10T07:10:44;94497.53;;;7.86;87.45
1472;BME280;963;42.644;23.336;2023-05-10T07:13:10;94479.63;;;7.88;86.70
1472;BME280;963;42.644;23.336;2023-05-10T07:15:35;94484.22;;;7.78;86.81
1472;BME280;963;42.644;23.336;2023-05-10T07:18:01;94489.44;;;7.78;87.28
1472;BME280;963;42.644;23.336;2023-05-10T07:20:26;94481.81;;;7.86;86.77
1472;BME280;963;42.644;23.336;2023-05-10T07:22:52;94497.06;;;7.96;86.82
1472;BME280;963;42.644;23.336;2023-05-10T07:25:17;94484.97;;;7.91;86.36
1472;BME280;963;42.644;23.336;2023-05-10T07:27:43;94479.09;;;7.82;87.13
1472;BME280;963;42.644;23.336;2023-05-10T07:30:08;94488.81;;;7.81;86.84
1472;BME280;963;42.644;23.336;2023-05-10T07:32:34;94487.50;;;7.75;87.03
1472;BME280;963;42.644;23.336;2023-05-10T07:34:59;94488.59;;;7.62;88.91
1472;BME280;963;42.644;23.336;2023-05-10T07:37:25;94497.63;;;7.77;88.79
1472;BME280;963;42.644;23.336;2023-05-10T07:39:50;94509.53;;;7.87;88.21
1472;BME280;963;42.644;23.336;2023-05-10T07:42:16;94505.38;;;7.86;88.46
1472;BME280;963;42.644;23.336;2023-05-10T07:44:41;94490.78;;;7.84;88.59
1472;BME280;963;42.644;23.336;2023-05-10T07:47:06;94515.00;;;7.81;88.97
1472;BME280;963;42.644;23.336;2023-05-10T07:49:32;94484.44;;;7.73;88.07
1472;BME280;963;42.644;23.336;2023-05-10T07:51:57;94506.22;;;8.02;88.13
1472;BME280;963;42.644;23.336;2023-05-10T07:54:23;94517.78;;;8.01;87.92
1472;BME280;963;42.644;23.336;2023-05-10T07:56:48;94504.78;;;8.04;87.69
1472;BME280;963;42.644;23.336;2023-05-10T07:59:17;94510.13;;;8.08;87.53
1472;BME280;963;42.644;23.336;2023-05-10T08:01:43;94494.00;;;8.06;85.94
1472;BME280;963;42.644;23.336;2023-05-10T08:04:08;94506.19;;;8.14;86.45
1472;BME280;963;42.644;23.336;2023-05-10T08:06:34;94503.63;;;7.90;87.34
1472;BME280;963;42.644;23.336;2023-05-10T08:08:59;94499.09;;;8.14;87.14
1472;BME280;963;42.644;23.336;2023-05-10T08:11:25;94523.69;;;7.98;86.21
1472;BME280;963;42.644;23.336;2023-05-10T08:13:51;94499.88;;;8.03;84.58
1472;BME280;963;42.644;23.336;2023-05-10T08:16:17;94505.75;;;8.12;83.89
1472;BME280;963;42.644;23.336;2023-05-10T08:18:44;94519.31;;;8.02;84.35
1472;BME280;963;42.644;23.336;2023-05-10T08:21:14;94526.47;;;8.17;85.26
1472;BME280;963;42.644;23.336;2023-05-10T08:23:40;94509.59;;;8.02;84.71
1472;BME280;963;42.644;23.336;2023-05-10T08:26:06;94508.28;;;8.21;84.22
1472;BME280;963;42.644;23.336;2023-05-10T08:28:31;94499.41;;;8.13;83.79
1472;BME280;963;42.644;23.336;2023-05-10T08:30:56;94512.75;;;8.20;83.99
1472;BME280;963;42.644;23.336;2023-05-10T08:33:22;94515.47;;;8.11;84.55
1472;BME280;963;42.644;23.336;2023-05-10T08:35:48;94512.09;;;8.23;84.90
1472;BME280;963;42.644;23.336;2023-05-10T08:38:13;94520.88;;;8.43;83.96
1472;BME280;963;42.644;23.336;2023-05-10T08:40:42;94507.03;;;8.30;83.92
1472;BME280;963;42.644;23.336;2023-05-10T08:43:10;94522.50;;;8.48;83.92
1472;BME280;963;42.644;23.336;2023-05-10T08:45:38;94518.09;;;8.24;85.42
1472;BME280;963;42.644;23.336;2023-05-10T08:48:06;94518.13;;;8.52;84.37
1472;BME280;963;42.644;23.336;2023-05-10T08:50:32;94516.56;;;8.63;84.54
1472;BME280;963;42.644;23.336;2023-05-10T08:53:00;94538.13;;;8.44;84.94
1472;BME280;963;42.644;23.336;2023-05-10T08:55:29;94514.25;;;8.33;84.78
1472;BME280;963;42.644;23.336;2023-05-10T08:57:55;94508.47;;;8.28;86.79
1472;BME280;963;42.644;23.336;2023-05-10T09:00:21;94521.25;;;8.17;87.66
1472;BME280;963;42.644;23.336;2023-05-10T09:02:49;94522.34;;;8.16;86.92
1472;BME280;963;42.644;23.336;2023-05-10T09:05:15;94517.66;;;8.22;88.50
1472;BME280;963;42.644;23.336;2023-05-10T09:07:41;94510.56;;;8.22;88.14
1472;BME280;963;42.644;23.336;2023-05-10T09:10:08;94513.19;;;8.10;87.66
1472;BME280;963;42.644;23.336;2023-05-10T09:12:35;94518.53;;;8.13;88.86
1472;BME280;963;42.644;23.336;2023-05-10T09:15:01;94516.47;;;8.07;90.00
1472;BME280;963;42.644;23.336;2023-05-10T09:17:28;94513.59;;;8.24;89.90
1472;BME280;963;42.644;23.336;2023-05-10T09:20:02;94512.94;;;8.15;90.62
1472;BME280;963;42.644;23.336;2023-05-10T09:22:30;94530.66;;;8.18;89.85
1472;BME280;963;42.644;23.336;2023-05-10T09:27:30;94510.41;;;8.43;87.33
1472;BME280;963;42.644;23.336;2023-05-10T09:29:55;94507.03;;;8.30;88.28
1472;BME280;963;42.644;23.336;2023-05-10T09:32:21;94528.00;;;8.42;88.18
1472;BME280;963;42.644;23.336;2023-05-10T09:34:49;94507.78;;;8.43;87.54
1472;BME280;963;42.644;23.336;2023-05-10T09:37:14;94491.03;;;8.20;88.66
1472;BME280;963;42.644;23.336;2023-05-10T09:39:40;94498.28;;;8.38;88.48
1472;BME280;963;42.644;23.336;2023-05-10T09:42:10;94523.03;;;8.53;86.69
1472;BME280;963;42.644;23.336;2023-05-10T09:44:35;94505.91;;;8.56;85.58
1472;BME280;963;42.644;23.336;2023-05-10T09:47:02;94503.69;;;8.58;85.20
1472;BME280;963;42.644;23.336;2023-05-10T09:49:28;94500.69;;;8.31;85.73
1472;BME280;963;42.644;23.336;2023-05-10T09:52:04;94503.72;;;8.45;85.57
1472;BME280;963;42.644;23.336;2023-05-10T09:54:31;94485.38;;;8.45;84.18
1472;BME280;963;42.644;23.336;2023-05-10T09:56:57;94492.78;;;8.56;84.51
1472;BME280;963;42.644;23.336;2023-05-10T09:59:25;94494.19;;;8.53;84.79
1472;BME280;963;42.644;23.336;2023-05-10T10:01:51;94508.53;;;8.56;84.88
1472;BME280;963;42.644;23.336;2023-05-10T10:04:17;94497.16;;;8.52;85.55
1472;BME280;963;42.644;23.336;2023-05-10T10:06:43;94486.97;;;8.62;84.30
1472;BME280;963;42.644;23.336;2023-05-10T10:09:08;94479.78;;;8.59;84.79
1472;BME280;963;42.644;23.336;2023-05-10T10:11:35;94473.94;;;8.66;83.48
1472;BME280;963;42.644;23.336;2023-05-10T10:14:01;94469.13;;;8.68;83.49
1472;BME280;963;42.644;23.336;2023-05-10T10:16:28;94477.25;;;8.63;83.43
1472;BME280;963;42.644;23.336;2023-05-10T10:18:54;94467.94;;;8.65;83.32
1472;BME280;963;42.644;23.336;2023-05-10T10:21:20;94471.31;;;8.66;83.97
1472;BME280;963;42.644;23.336;2023-05-10T10:23:46;94472.84;;;8.67;84.36
1472;BME280;963;42.644;23.336;2023-05-10T10:26:11;94474.03;;;8.85;83.85
1472;BME280;963;42.644;23.336;2023-05-10T10:29:17;94477.84;;;8.88;83.68
1472;BME280;963;42.644;23.336;2023-05-10T10:34:28;94468.28;;;8.80;82.65
1472;BME280;963;42.644;23.336;2023-05-10T10:36:54;94473.78;;;8.74;82.40
1472;BME280;963;42.644;23.336;2023-05-10T10:39:21;94497.22;;;8.83;83.15
1472;BME280;963;42.644;23.336;2023-05-10T10:41:51;94494.97;;;8.97;82.80
1472;BME280;963;42.644;23.336;2023-05-10T10:52:39;94479.59;;;8.96;82.66
1472;BME280;963;42.644;23.336;2023-05-10T11:00:24;94494.31;;;9.16;82.16
1472;BME280;963;42.644;23.336;2023-05-10T11:03:08;94473.75;;;9.02;81.64
1472;BME280;963;42.644;23.336;2023-05-10T11:05:50;94490.16;;;8.99;82.57
1472;BME280;963;42.644;23.336;2023-05-10T11:13:43;94481.28;;;9.20;82.22
1472;BME280;963;42.644;23.336;2023-05-10T11:18:40;94466.03;;;9.25;81.96
1472;BME280;963;42.644;23.336;2023-05-10T11:21:08;94475.59;;;9.18;81.43
1472;BME280;963;42.644;23.336;2023-05-10T11:23:51;94470.34;;;9.18;82.07
1472;BME280;963;42.644;23.336;2023-05-10T11:26:21;94473.16;;;9.40;81.30
1472;BME280;963;42.644;23.336;2023-05-10T11:28:48;94489.91;;;9.36;80.69
1472;BME280;963;42.644;23.336;2023-05-10T11:31:17;94462.72;;;9.44;80.41
1472;BME280;963;42.644;23.336;2023-05-10T11:33:54;94482.97;;;9.44;80.44
1472;BME280;963;42.644;23.336;2023-05-10T11:36:33;94485.78;;;9.35;80.84
1472;BME280;963;42.644;23.336;2023-05-10T11:38:59;94487.56;;;9.31;80.87
1472;BME280;963;42.644;23.336;2023-05-10T11:41:26;94475.09;;;9.28;80.80
1472;BME280;963;42.644;23.336;2023-05-10T11:43:53;94479.50;;;9.24;81.30
1472;BME280;963;42.644;23.336;2023-05-10T11:46:21;94482.19;;;9.27;81.85
1472;BME280;963;42.644;23.336;2023-05-10T11:48:49;94485.50;;;9.24;81.73
1472;BME280;963;42.644;23.336;2023-05-10T11:51:22;94477.06;;;9.31;81.77
1472;BME280;963;42.644;23.336;2023-05-10T11:53:49;94493.31;;;9.36;81.73
1472;BME280;963;42.644;23.336;2023-05-10T11:56:15;94475.09;;;9.44;81.62
1472;BME280;963;42.644;23.336;2023-05-10T11:58:40;94471.72;;;9.43;81.30
1472;BME280;963;42.644;23.336;2023-05-10T12:01:07;94480.84;;;9.49;81.60
1472;BME280;963;42.644;23.336;2023-05-10T12:03:34;94474.06;;;9.48;81.15
1472;BME280;963;42.644;23.336;2023-05-10T12:06:01;94475.94;;;9.48;81.92
1472;BME280;963;42.644;23.336;2023-05-10T12:08:28;94469.06;;;9.59;81.38
1472;BME280;963;42.644;23.336;2023-05-10T12:11:07;94471.75;;;9.62;82.06
1472;BME280;963;42.644;23.336;2023-05-10T12:13:37;94475.56;;;9.65;81.48
1472;BME280;963;42.644;23.336;2023-05-10T12:16:15;94462.53;;;9.68;79.94
1472;BME280;963;42.644;23.336;2023-05-10T12:18:41;94452.44;;;9.70;79.40
1472;BME280;963;42.644;23.336;2023-05-10T12:21:09;94451.13;;;9.45;80.58
1472;BME280;963;42.644;23.336;2023-05-10T12:23:35;94446.72;;;9.49;81.07
1472;BME280;963;42.644;23.336;2023-05-10T12:26:02;94462.28;;;9.58;80.06
1472;BME280;963;42.644;23.336;2023-05-10T12:28:30;94458.63;;;9.62;80.08
1472;BME280;963;42.644;23.336;2023-05-10T12:30:57;94465.75;;;9.62;79.59
1472;BME280;963;42.644;23.336;2023-05-10T12:33:23;94459.38;;;9.63;80.22
1472;BME280;963;42.644;23.336;2023-05-10T12:35:51;94451.59;;;9.66;80.25
1472;BME280;963;42.644;23.336;2023-05-10T12:38:29;94440.56;;;9.77;80.09
1472;BME280;963;42.644;23.336;2023-05-10T12:41:03;94444.78;;;9.81;79.68
1472;BME280;963;42.644;23.336;2023-05-10T12:43:29;94471.66;;;9.75;79.79
1472;BME280;963;42.644;23.336;2023-05-10T12:45:55;94464.19;;;9.77;80.33
1472;BME280;963;42.644;23.336;2023-05-10T12:48:21;94438.63;;;9.74;79.78
1472;BME280;963;42.644;23.336;2023-05-10T12:50:46;94437.94;;;9.77;79.95
1472;BME280;963;42.644;23.336;2023-05-10T12:53:15;94439.38;;;9.74;80.84
1472;BME280;963;42.644;23.336;2023-05-10T12:55:42;94421.56;;;9.48;81.39
1472;BME280;963;42.644;23.336;2023-05-10T12:58:07;94432.44;;;9.66;80.60
1472;BME280;963;42.644;23.336;2023-05-10T13:00:33;94431.16;;;9.76;80.46
1472;BME280;963;42.644;23.336;2023-05-10T13:02:58;94435.31;;;9.77;80.19
1472;BME280;963;42.644;23.336;2023-05-10T13:05:24;94428.94;;;9.78;80.46
1472;BME280;963;42.644;23.336;2023-05-10T13:07:49;94436.97;;;9.85;80.26
1472;BME280;963;42.644;23.336;2023-05-10T13:10:16;94423.28;;;9.95;80.05
1472;BME280;963;42.644;23.336;2023-05-10T13:12:41;94426.34;;;9.97;80.11
1472;BME280;963;42.644;23.336;2023-05-10T13:15:07;94419.56;;;9.96;79.82
1472;BME280;963;42.644;23.336;2023-05-10T13:17:32;94428.03;;;10.05;79.29
1472;BME280;963;42.644;23.336;2023-05-10T13:19:58;94417.50;;;10.05;79.19
1472;BME280;963;42.644;23.336;2023-05-10T13:22:23;94416.94;;;10.15;78.69
1472;BME280;963;42.644;23.336;2023-05-10T13:24:49;94394.81;;;9.97;79.56
1472;BME280;963;42.644;23.336;2023-05-10T13:27:14;94411.50;;;10.05;79.43
1472;BME280;963;42.644;23.336;2023-05-10T13:29:40;94412.84;;;9.79;80.17
1472;BME280;963;42.644;23.336;2023-05-10T13:32:05;94419.69;;;10.03;79.65
1472;BME280;963;42.644;23.336;2023-05-10T13:34:31;94401.75;;;10.05;78.81
1472;BME280;963;42.644;23.336;2023-05-10T13:36:57;94404.03;;;10.07;77.48
1472;BME280;963;42.644;23.336;2023-05-10T13:39:22;94388.44;;;9.98;78.90
1472;BME280;963;42.644;23.336;2023-05-10T13:41:48;94401.56;;;9.98;78.49
1472;BME280;963;42.644;23.336;2023-05-10T13:44:14;94403.09;;;9.99;79.02
1472;BME280;963;42.644;23.336;2023-05-10T13:46:40;94381.59;;;9.93;79.36
1472;BME280;963;42.644;23.336;2023-05-10T13:49:08;94392.53;;;9.95;79.23
1472;BME280;963;42.644;23.336;2023-05-10T13:51:33;94391.22;;;9.86;79.58
1472;BME280;963;42.644;23.336;2023-05-10T13:53:59;94384.16;;;9.90;79.68
1472;BME280;963;42.644;23.336;2023-05-10T13:56:24;94403.09;;;9.99;79.54
1472;BME280;963;42.644;23.336;2023-05-10T13:58:49;94382.00;;;9.95;79.46
1472;BME280;963;42.644;23.336;2023-05-10T14:01:15;94408.34;;;9.99;78.69
1472;BME280;963;42.644;23.336;2023-05-10T14:03:41;94387.25;;;9.95;78.75
1472;BME280;963;42.644;23.336;2023-05-10T14:06:06;94402.84;;;10.04;78.34
1472;BME280;963;42.644;23.336;2023-05-10T14:08:33;94388.84;;;10.00;78.47
1472;BME280;963;42.644;23.336;2023-05-10T14:10:58;94382.06;;;9.99;77.93
1472;BME280;963;42.644;23.336;2023-05-10T14:13:23;94394.19;;;10.03;79.23
1472;BME280;963;42.644;23.336;2023-05-10T14:15:50;94385.13;;;10.01;78.63
1472;BME280;963;42.644;23.336;2023-05-10T14:18:15;94388.94;;;10.03;78.31